TimeMDT,TemperatureF,Dew PointF,Humidity,Sea Level PressureIn,VisibilityMPH,Wind Direction,Wind SpeedMPH,Gust SpeedMPH,PrecipitationIn,Events,Conditions,WindDirDegrees,DateUTC
12:15 AM,41.0,12.2,31,30.19,10.0,SW,5.8,-,N/A,,Clear,220,2014-03-17 06:15:00
12:35 AM,42.8,12.2,29,30.19,10.0,Calm,Calm,-,N/A,,Clear,0,2014-03-17 06:35:00
12:55 AM,37.4,12.2,36,30.19,10.0,Calm,Calm,-,N/A,,Clear,0,2014-03-17 06:55:00
1:15 AM,37.4,12.2,36,30.18,10.0,Calm,Calm,-,N/A,,Clear,0,2014-03-17 07:15:00
1:35 AM,37.4,12.2,36,30.18,10.0,Calm,Calm,-,N/A,,Clear,0,2014-03-17 07:35:00
1:55 AM,35.6,12.2,38,30.17,10.0,West,3.5,-,N/A,,Clear,260,2014-03-17 07:55:00
2:15 AM,35.6,14.0,41,30.17,10.0,Calm,Calm,-,N/A,,Clear,0,2014-03-17 08:15:00
2:35 AM,37.4,14.0,38,30.16,10.0,Calm,Calm,-,N/A,,Clear,0,2014-03-17 08:35:00
2:55 AM,37.4,12.2,36,30.14,10.0,Calm,Calm,-,N/A,,Clear,0,2014-03-17 08:55:00
3:15 AM,35.6,14.0,41,30.14,10.0,Calm,Calm,-,N/A,,Clear,0,2014-03-17 09:15:00
3:35 AM,35.6,14.0,41,30.13,10.0,WSW,3.5,-,N/A,,Clear,250,2014-03-17 09:35:00
3:55 AM,35.6,12.2,38,30.12,10.0,Calm,Calm,-,N/A,,Clear,0,2014-03-17 09:55:00
4:15 AM,35.6,14.0,41,30.12,10.0,Calm,Calm,-,N/A,,Clear,0,2014-03-17 10:15:00
4:35 AM,33.8,14.0,44,30.11,10.0,WNW,4.6,-,N/A,,Clear,290,2014-03-17 10:35:00
4:55 AM,33.8,14.0,44,30.10,10.0,Calm,Calm,-,N/A,,Clear,0,2014-03-17 10:55:00
5:15 AM,33.8,14.0,44,30.10,10.0,Calm,Calm,-,N/A,,Clear,0,2014-03-17 11:15:00
5:35 AM,33.8,14.0,44,30.10,10.0,WNW,3.5,-,N/A,,Clear,290,2014-03-17 11:35:00
5:55 AM,32.0,14.0,48,30.09,10.0,WNW,3.5,-,N/A,,Clear,290,2014-03-17 11:55:00
6:15 AM,32.0,14.0,48,30.08,10.0,WNW,3.5,-,N/A,,Clear,300,2014-03-17 12:15:00
6:35 AM,32.0,14.0,48,30.09,10.0,West,4.6,-,N/A,,Clear,260,2014-03-17 12:35:00
6:55 AM,33.8,14.0,44,30.08,10.0,West,6.9,-,N/A,,Clear,260,2014-03-17 12:55:00
7:15 AM,33.8,14.0,44,30.08,10.0,West,5.8,-,N/A,,Clear,270,2014-03-17 13:15:00
7:35 AM,33.8,14.0,44,30.08,10.0,WNW,4.6,-,N/A,,Clear,290,2014-03-17 13:35:00
7:55 AM,35.6,14.0,41,30.08,10.0,West,4.6,-,N/A,,Clear,260,2014-03-17 13:55:00
8:15 AM,37.4,15.8,41,30.07,10.0,Calm,Calm,-,N/A,,Clear,0,2014-03-17 14:15:00
8:35 AM,41.0,15.8,36,30.08,10.0,NW,3.5,-,N/A,,Clear,310,2014-03-17 14:35:00
8:55 AM,42.8,15.8,34,30.08,10.0,WNW,3.5,-,N/A,,Clear,300,2014-03-17 14:55:00
9:15 AM,44.6,17.6,34,30.07,10.0,WNW,3.5,-,N/A,,Clear,300,2014-03-17 15:15:00
9:35 AM,50.0,15.8,26,30.07,10.0,West,5.8,-,N/A,,Clear,280,2014-03-17 15:35:00
9:55 AM,53.6,15.8,22,30.06,10.0,WNW,4.6,-,N/A,,Clear,300,2014-03-17 15:55:00
10:15 AM,55.4,14.0,20,30.04,10.0,NW,4.6,-,N/A,,Clear,320,2014-03-17 16:15:00
10:35 AM,55.4,15.8,21,30.04,10.0,NW,5.8,-,N/A,,Clear,310,2014-03-17 16:35:00
10:55 AM,59.0,15.8,19,30.04,10.0,NW,4.6,-,N/A,,Clear,310,2014-03-17 16:55:00
11:15 AM,60.8,14.0,16,30.03,10.0,West,3.5,-,N/A,,Clear,270,2014-03-17 17:15:00
11:35 AM,62.6,14.0,15,30.02,10.0,West,8.1,-,N/A,,Clear,260,2014-03-17 17:35:00
11:55 AM,62.6,14.0,15,30.00,10.0,West,8.1,-,N/A,,Clear,280,2014-03-17 17:55:00
12:15 PM,64.4,14.0,14,29.99,10.0,West,9.2,-,N/A,,Clear,280,2014-03-17 18:15:00
12:35 PM,64.4,14.0,14,29.97,10.0,WNW,9.2,-,N/A,,Clear,290,2014-03-17 18:35:00
12:55 PM,66.2,14.0,13,29.96,10.0,West,9.2,-,N/A,,Clear,270,2014-03-17 18:55:00
1:15 PM,69.8,14.0,12,29.95,10.0,West,13.8,18.4,N/A,,Clear,260,2014-03-17 19:15:00
1:35 PM,69.8,14.0,12,29.93,10.0,WNW,11.5,17.3,N/A,,Clear,290,2014-03-17 19:35:00
1:55 PM,69.8,12.2,11,29.91,10.0,West,11.5,28.8,N/A,,Clear,260,2014-03-17 19:55:00
2:15 PM,71.6,12.2,10,29.89,10.0,WSW,12.7,19.6,N/A,,Clear,250,2014-03-17 20:15:00
2:35 PM,71.6,12.2,10,29.87,10.0,West,13.8,21.9,N/A,,Clear,270,2014-03-17 20:35:00
2:55 PM,73.4,14.0,10,29.85,10.0,WSW,15.0,20.7,N/A,,Clear,240,2014-03-17 20:55:00
3:15 PM,71.6,12.2,10,29.83,10.0,WSW,13.8,23.0,N/A,,Clear,250,2014-03-17 21:15:00
3:35 PM,73.4,12.2,10,29.82,10.0,SW,15.0,21.9,N/A,,Clear,230,2014-03-17 21:35:00
3:55 PM,73.4,14.0,10,29.81,10.0,WSW,18.4,27.6,N/A,,Clear,250,2014-03-17 21:55:00
4:15 PM,73.4,12.2,10,29.80,10.0,West,19.6,25.3,N/A,,Clear,270,2014-03-17 22:15:00
4:35 PM,75.2,10.4,8,29.79,10.0,West,20.7,24.2,N/A,,Clear,270,2014-03-17 22:35:00
4:55 PM,75.2,10.4,8,29.78,10.0,WSW,24.2,28.8,N/A,,Clear,250,2014-03-17 22:55:00
5:15 PM,73.4,6.8,8,29.77,10.0,West,26.5,39.1,N/A,,Clear,260,2014-03-17 23:15:00
5:35 PM,73.4,8.6,8,29.77,10.0,West,20.7,29.9,N/A,,Clear,260,2014-03-17 23:35:00
5:55 PM,73.4,8.6,8,29.76,10.0,West,23.0,28.8,N/A,,Clear,260,2014-03-17 23:55:00
6:15 PM,71.6,12.2,10,29.76,10.0,West,18.4,28.8,N/A,,Clear,280,2014-03-18 00:15:00
6:35 PM,69.8,12.2,11,29.76,10.0,WNW,20.7,27.6,N/A,,Clear,290,2014-03-18 00:35:00
6:55 PM,69.8,12.2,11,29.75,10.0,West,16.1,20.7,N/A,,Clear,280,2014-03-18 00:55:00
7:15 PM,68.0,10.4,11,29.75,10.0,West,17.3,23.0,N/A,,Clear,270,2014-03-18 01:15:00
7:35 PM,64.4,10.4,12,29.74,10.0,West,15.0,-,N/A,,Clear,260,2014-03-18 01:35:00
7:55 PM,64.4,10.4,12,29.73,10.0,WSW,16.1,21.9,N/A,,Clear,240,2014-03-18 01:55:00
8:15 PM,62.6,8.6,12,29.73,10.0,WSW,15.0,-,N/A,,Clear,250,2014-03-18 02:15:00
8:35 PM,62.6,8.6,12,29.71,10.0,WSW,20.7,26.5,N/A,,Clear,240,2014-03-18 02:35:00
8:55 PM,62.6,6.8,11,29.72,10.0,WSW,12.7,18.4,N/A,,Clear,250,2014-03-18 02:55:00
9:35 PM,60.8,8.6,13,29.74,10.0,West,8.1,-,N/A,,Clear,260,2014-03-18 03:35:00
9:55 PM,55.4,8.6,15,29.75,10.0,NNW,3.5,-,N/A,,Clear,330,2014-03-18 03:55:00
10:15 PM,59.0,8.6,14,29.75,10.0,WNW,8.1,-,N/A,,Clear,290,2014-03-18 04:15:00
10:35 PM,59.0,8.6,14,29.76,10.0,WSW,9.2,-,N/A,,Clear,250,2014-03-18 04:35:00
10:55 PM,53.6,8.6,16,29.77,10.0,NW,4.6,-,N/A,,Clear,320,2014-03-18 04:55:00
11:15 PM,53.6,8.6,16,29.76,10.0,West,4.6,-,N/A,,Clear,270,2014-03-18 05:15:00
11:35 PM,51.8,8.6,18,29.76,10.0,West,8.1,-,N/A,,Clear,270,2014-03-18 05:35:00
11:55 PM,53.6,8.6,16,29.75,10.0,West,10.4,-,N/A,,Clear,260,2014-03-18 05:55:00